sensor_id;sensor_type;location;lat;lon;timestamp;temperature;humidity
66710;DHT22;53624;0.000;0.000;2024-02-23T00:01:58;11.70;99.90
66710;DHT22;53624;0.000;0.000;2024-02-23T00:04:25;11.70;99.90
66710;DHT22;53624;0.000;0.000;2024-02-23T00:06:53;11.70;99.90
66710;DHT22;53624;0.000;0.000;2024-02-23T00:09:20;11.70;99.90
66710;DHT22;53624;0.000;0.000;2024-02-23T00:11:47;11.70;99.90
66710;DHT22;53624;0.000;0.000;2024-02-23T00:14:16;11.70;99.90
66710;DHT22;53624;0.000;0.000;2024-02-23T00:16:44;11.70;99.90
66710;DHT22;53624;0.000;0.000;2024-02-23T00:19:11;11.70;99.90
66710;DHT22;53624;0.000;0.000;2024-02-23T00:21:38;11.70;99.90
66710;DHT22;53624;0.000;0.000;2024-02-23T00:24:06;11.70;99.90
66710;DHT22;53624;0.000;0.000;2024-02-23T00:26:33;11.70;99.90
66710;DHT22;53624;0.000;0.000;2024-02-23T00:29:00;11.70;99.90
66710;DHT22;53624;0.000;0.000;2024-02-23T00:31:29;11.60;99.90
66710;DHT22;53624;0.000;0.000;2024-02-23T00:33:56;11.60;99.90
66710;DHT22;53624;0.000;0.000;2024-02-23T00:36:23;11.60;99.90
66710;DHT22;53624;0.000;0.000;2024-02-23T00:38:50;11.60;99.90
66710;DHT22;53624;0.000;0.000;2024-02-23T00:41:18;11.60;99.90
66710;DHT22;53624;0.000;0.000;2024-02-23T00:43:45;11.60;99.90
66710;DHT22;53624;0.000;0.000;2024-02-23T00:46:13;11.60;99.90
66710;DHT22;53624;0.000;0.000;2024-02-23T00:48:42;11.60;99.90
66710;DHT22;53624;0.000;0.000;2024-02-23T00:51:09;11.60;99.90
66710;DHT22;53624;0.000;0.000;2024-02-23T00:53:36;11.60;99.90
66710;DHT22;53624;0.000;0.000;2024-02-23T00:56:04;11.60;99.90
66710;DHT22;53624;0.000;0.000;2024-02-23T00:58:31;11.60;99.90
66710;DHT22;53624;0.000;0.000;2024-02-23T01:00:58;11.60;99.90
66710;DHT22;53624;0.000;0.000;2024-02-23T01:03:26;11.60;99.90
66710;DHT22;53624;0.000;0.000;2024-02-23T01:05:54;11.60;99.90
66710;DHT22;53624;0.000;0.000;2024-02-23T01:08:21;11.50;99.90
66710;DHT22;53624;0.000;0.000;2024-02-23T01:10:48;11.50;99.90
66710;DHT22;53624;0.000;0.000;2024-02-23T01:13:16;11.50;99.90
66710;DHT22;53624;0.000;0.000;2024-02-23T01:15:43;11.50;99.90
66710;DHT22;53624;0.000;0.000;2024-02-23T01:18:10;11.50;99.90
66710;DHT22;53624;0.000;0.000;2024-02-23T01:20:37;11.50;99.90
66710;DHT22;53624;0.000;0.000;2024-02-23T01:23:06;11.50;99.90
66710;DHT22;53624;0.000;0.000;2024-02-23T01:25:33;11.50;99.90
66710;DHT22;53624;0.000;0.000;2024-02-23T01:28:00;11.50;99.90
66710;DHT22;53624;0.000;0.000;2024-02-23T01:30:29;11.50;99.90
66710;DHT22;53624;0.000;0.000;2024-02-23T01:32:56;11.50;99.90
66710;DHT22;53624;0.000;0.000;2024-02-23T01:35:23;11.50;99.90
66710;DHT22;53624;0.000;0.000;2024-02-23T01:37:51;11.50;99.90
66710;DHT22;53624;0.000;0.000;2024-02-23T01:40:19;11.40;99.90
66710;DHT22;53624;0.000;0.000;2024-02-23T01:42:46;11.40;99.90
66710;DHT22;53624;0.000;0.000;2024-02-23T01:45:13;11.40;99.90
66710;DHT22;53624;0.000;0.000;2024-02-23T01:47:41;11.40;99.90
66710;DHT22;53624;0.000;0.000;2024-02-23T01:50:08;11.40;99.90
66710;DHT22;53624;0.000;0.000;2024-02-23T01:52:38;11.40;99.90
66710;DHT22;53624;0.000;0.000;2024-02-23T01:55:06;11.40;99.90
66710;DHT22;53624;0.000;0.000;2024-02-23T01:57:34;11.40;99.90
66710;DHT22;53624;0.000;0.000;2024-02-23T02:00:02;11.40;99.90
66710;DHT22;53624;0.000;0.000;2024-02-23T02:02:30;11.40;99.90
66710;DHT22;53624;0.000;0.000;2024-02-23T02:04:57;11.30;99.90
66710;DHT22;53624;0.000;0.000;2024-02-23T02:07:24;11.30;99.90
66710;DHT22;53624;0.000;0.000;2024-02-23T02:09:51;11.40;99.90
66710;DHT22;53624;0.000;0.000;2024-02-23T02:12:26;11.30;99.90
66710;DHT22;53624;0.000;0.000;2024-02-23T02:14:54;11.30;99.90
66710;DHT22;53624;0.000;0.000;2024-02-23T02:17:22;11.30;99.90
66710;DHT22;53624;0.000;0.000;2024-02-23T02:19:49;11.30;99.90
66710;DHT22;53624;0.000;0.000;2024-02-23T02:22:16;11.30;99.90
66710;DHT22;53624;0.000;0.000;2024-02-23T02:24:43;11.30;99.90
66710;DHT22;53624;0.000;0.000;2024-02-23T02:27:12;11.30;99.90
66710;DHT22;53624;0.000;0.000;2024-02-23T02:29:39;11.30;99.90
66710;DHT22;53624;0.000;0.000;2024-02-23T02:32:08;11.30;99.90
66710;DHT22;53624;0.000;0.000;2024-02-23T02:34:35;11.30;99.90
66710;DHT22;53624;0.000;0.000;2024-02-23T02:37:03;11.30;99.90
66710;DHT22;53624;0.000;0.000;2024-02-23T02:39:30;11.20;99.90
66710;DHT22;53624;0.000;0.000;2024-02-23T02:41:57;11.20;99.90
66710;DHT22;53624;0.000;0.000;2024-02-23T02:44:24;11.20;99.90
66710;DHT22;53624;0.000;0.000;2024-02-23T02:46:52;11.20;99.90
66710;DHT22;53624;0.000;0.000;2024-02-23T02:49:21;11.20;99.90
66710;DHT22;53624;0.000;0.000;2024-02-23T02:51:48;11.20;99.90
66710;DHT22;53624;0.000;0.000;2024-02-23T02:54:15;11.20;99.90
66710;DHT22;53624;0.000;0.000;2024-02-23T02:56:43;11.20;99.90
66710;DHT22;53624;0.000;0.000;2024-02-23T02:59:11;11.20;99.90
66710;DHT22;53624;0.000;0.000;2024-02-23T03:01:39;11.20;99.90
66710;DHT22;53624;0.000;0.000;2024-02-23T03:04:07;11.20;99.90
66710;DHT22;53624;0.000;0.000;2024-02-23T03:06:36;11.10;99.90
66710;DHT22;53624;0.000;0.000;2024-02-23T03:09:03;11.10;99.90
66710;DHT22;53624;0.000;0.000;2024-02-23T03:11:30;11.10;99.90
66710;DHT22;53624;0.000;0.000;2024-02-23T03:13:58;11.10;99.90
66710;DHT22;53624;0.000;0.000;2024-02-23T03:16:25;11.10;99.90
66710;DHT22;53624;0.000;0.000;2024-02-23T03:18:53;11.10;99.90
66710;DHT22;53624;0.000;0.000;2024-02-23T03:21:20;11.00;99.90
66710;DHT22;53624;0.000;0.000;2024-02-23T03:23:49;11.10;99.90
66710;DHT22;53624;0.000;0.000;2024-02-23T03:26:16;11.10;99.90
66710;DHT22;53624;0.000;0.000;2024-02-23T03:28:43;11.00;99.90
66710;DHT22;53624;0.000;0.000;2024-02-23T03:31:11;11.00;99.90
66710;DHT22;53624;0.000;0.000;2024-02-23T03:33:38;11.00;99.90
66710;DHT22;53624;0.000;0.000;2024-02-23T03:36:05;11.00;99.90
66710;DHT22;53624;0.000;0.000;2024-02-23T03:38:33;11.00;99.90
66710;DHT22;53624;0.000;0.000;2024-02-23T03:41:02;11.00;99.90
66710;DHT22;53624;0.000;0.000;2024-02-23T03:43:29;10.90;99.90
66710;DHT22;53624;0.000;0.000;2024-02-23T03:45:56;10.90;99.90
66710;DHT22;53624;0.000;0.000;2024-02-23T03:48:23;10.90;99.90
66710;DHT22;53624;0.000;0.000;2024-02-23T03:50:51;10.90;99.90
66710;DHT22;53624;0.000;0.000;2024-02-23T03:53:20;10.90;99.90
66710;DHT22;53624;0.000;0.000;2024-02-23T03:55:47;10.90;99.90
66710;DHT22;53624;0.000;0.000;2024-02-23T03:58:16;10.90;99.90
66710;DHT22;53624;0.000;0.000;2024-02-23T04:00:43;10.80;99.90
66710;DHT22;53624;0.000;0.000;2024-02-23T04:03:10;10.90;99.90
66710;DHT22;53624;0.000;0.000;2024-02-23T04:05:38;10.80;99.90
66710;DHT22;53624;0.000;0.000;2024-02-23T04:08:05;10.80;99.90
66710;DHT22;53624;0.000;0.000;2024-02-23T04:10:32;10.80;99.90
66710;DHT22;53624;0.000;0.000;2024-02-23T04:13:00;10.70;99.90
66710;DHT22;53624;0.000;0.000;2024-02-23T04:15:28;10.70;99.90
66710;DHT22;53624;0.000;0.000;2024-02-23T04:17:55;10.70;99.90
66710;DHT22;53624;0.000;0.000;2024-02-23T04:20:23;10.70;99.90
66710;DHT22;53624;0.000;0.000;2024-02-23T04:22:50;10.70;99.90
66710;DHT22;53624;0.000;0.000;2024-02-23T04:25:18;10.70;99.90
66710;DHT22;53624;0.000;0.000;2024-02-23T04:27:45;10.70;99.90
66710;DHT22;53624;0.000;0.000;2024-02-23T04:30:12;10.60;99.90
66710;DHT22;53624;0.000;0.000;2024-02-23T04:32:41;10.60;99.90
66710;DHT22;53624;0.000;0.000;2024-02-23T04:35:08;10.70;99.90
66710;DHT22;53624;0.000;0.000;2024-02-23T04:37:35;10.60;99.90
66710;DHT22;53624;0.000;0.000;2024-02-23T04:40:03;10.60;99.90
66710;DHT22;53624;0.000;0.000;2024-02-23T04:42:30;10.60;99.90
66710;DHT22;53624;0.000;0.000;2024-02-23T04:44:57;10.50;99.90
66710;DHT22;53624;0.000;0.000;2024-02-23T04:47:24;10.50;99.90
66710;DHT22;53624;0.000;0.000;2024-02-23T04:49:52;10.50;99.90
66710;DHT22;53624;0.000;0.000;2024-02-23T04:52:20;10.50;99.90
66710;DHT22;53624;0.000;0.000;2024-02-23T04:54:47;10.50;99.90
66710;DHT22;53624;0.000;0.000;2024-02-23T04:57:14;10.50;99.90
66710;DHT22;53624;0.000;0.000;2024-02-23T04:59:41;10.50;99.90
66710;DHT22;53624;0.000;0.000;2024-02-23T05:02:08;10.50;99.90
66710;DHT22;53624;0.000;0.000;2024-02-23T05:04:35;10.40;99.90
66710;DHT22;53624;0.000;0.000;2024-02-23T05:07:04;10.40;99.90
66710;DHT22;53624;0.000;0.000;2024-02-23T05:09:31;10.40;99.90
66710;DHT22;53624;0.000;0.000;2024-02-23T05:11:58;10.40;99.90
66710;DHT22;53624;0.000;0.000;2024-02-23T05:14:25;10.40;99.90
66710;DHT22;53624;0.000;0.000;2024-02-23T05:16:53;10.40;99.90
66710;DHT22;53624;0.000;0.000;2024-02-23T05:19:20;10.30;99.90
66710;DHT22;53624;0.000;0.000;2024-02-23T05:21:47;10.30;99.90
66710;DHT22;53624;0.000;0.000;2024-02-23T05:24:16;10.30;99.90
66710;DHT22;53624;0.000;0.000;2024-02-23T05:26:43;10.30;99.90
66710;DHT22;53624;0.000;0.000;2024-02-23T05:29:10;10.30;99.90
66710;DHT22;53624;0.000;0.000;2024-02-23T05:31:44;10.30;99.90
66710;DHT22;53624;0.000;0.000;2024-02-23T05:34:11;10.30;99.90
66710;DHT22;53624;0.000;0.000;2024-02-23T05:36:38;10.30;99.90
66710;DHT22;53624;0.000;0.000;2024-02-23T05:39:05;10.30;99.90
66710;DHT22;53624;0.000;0.000;2024-02-23T05:41:36;10.20;99.90
66710;DHT22;53624;0.000;0.000;2024-02-23T05:44:04;10.20;99.90
66710;DHT22;53624;0.000;0.000;2024-02-23T05:46:32;10.20;99.90
66710;DHT22;53624;0.000;0.000;2024-02-23T05:48:59;10.20;99.90
66710;DHT22;53624;0.000;0.000;2024-02-23T05:51:27;10.20;99.90
66710;DHT22;53624;0.000;0.000;2024-02-23T05:53:55;10.10;99.90
66710;DHT22;53624;0.000;0.000;2024-02-23T05:56:22;10.10;99.90
66710;DHT22;53624;0.000;0.000;2024-02-23T05:58:51;10.10;99.90
66710;DHT22;53624;0.000;0.000;2024-02-23T06:01:19;10.10;99.90
66710;DHT22;53624;0.000;0.000;2024-02-23T06:03:46;10.10;99.90
66710;DHT22;53624;0.000;0.000;2024-02-23T06:06:13;10.10;99.90
66710;DHT22;53624;0.000;0.000;2024-02-23T06:08:40;10.10;99.90
66710;DHT22;53624;0.000;0.000;2024-02-23T06:11:09;10.00;99.90
66710;DHT22;53624;0.000;0.000;2024-02-23T06:13:36;10.00;99.90
66710;DHT22;53624;0.000;0.000;2024-02-23T06:16:09;10.00;99.90
66710;DHT22;53624;0.000;0.000;2024-02-23T06:18:36;10.00;99.90
66710;DHT22;53624;0.000;0.000;2024-02-23T06:21:10;10.00;99.90
66710;DHT22;53624;0.000;0.000;2024-02-23T06:23:37;10.00;99.90
66710;DHT22;53624;0.000;0.000;2024-02-23T06:26:05;10.00;99.90
66710;DHT22;53624;0.000;0.000;2024-02-23T06:28:32;10.00;99.90
66710;DHT22;53624;0.000;0.000;2024-02-23T06:31:00;9.90;99.90
66710;DHT22;53624;0.000;0.000;2024-02-23T06:33:28;9.90;99.90
66710;DHT22;53624;0.000;0.000;2024-02-23T06:35:55;9.90;99.90
66710;DHT22;53624;0.000;0.000;2024-02-23T06:38:22;9.90;99.90
66710;DHT22;53624;0.000;0.000;2024-02-23T06:40:50;9.90;99.90
66710;DHT22;53624;0.000;0.000;2024-02-23T06:43:17;9.90;99.90
66710;DHT22;53624;0.000;0.000;2024-02-23T06:45:44;9.90;99.90
66710;DHT22;53624;0.000;0.000;2024-02-23T06:48:11;9.90;99.90
66710;DHT22;53624;0.000;0.000;2024-02-23T06:50:40;9.90;99.90
66710;DHT22;53624;0.000;0.000;2024-02-23T06:53:07;9.90;99.90
66710;DHT22;53624;0.000;0.000;2024-02-23T06:55:34;9.90;99.90
66710;DHT22;53624;0.000;0.000;2024-02-23T06:58:01;9.90;99.90
66710;DHT22;53624;0.000;0.000;2024-02-23T07:00:30;9.90;99.90
66710;DHT22;53624;0.000;0.000;2024-02-23T07:02:57;9.90;99.90
66710;DHT22;53624;0.000;0.000;2024-02-23T07:05:24;9.90;99.90
66710;DHT22;53624;0.000;0.000;2024-02-23T07:07:53;9.90;99.90
66710;DHT22;53624;0.000;0.000;2024-02-23T07:10:20;9.90;99.90
66710;DHT22;53624;0.000;0.000;2024-02-23T07:12:48;9.90;99.90
66710;DHT22;53624;0.000;0.000;2024-02-23T07:15:19;9.90;99.90
66710;DHT22;53624;0.000;0.000;2024-02-23T07:17:46;9.90;99.90
66710;DHT22;53624;0.000;0.000;2024-02-23T07:20:13;9.90;99.90
66710;DHT22;53624;0.000;0.000;2024-02-23T07:22:43;9.90;99.90
66710;DHT22;53624;0.000;0.000;2024-02-23T07:25:11;9.90;99.90
66710;DHT22;53624;0.000;0.000;2024-02-23T07:27:38;9.90;99.90
66710;DHT22;53624;0.000;0.000;2024-02-23T07:30:06;9.90;99.90
66710;DHT22;53624;0.000;0.000;2024-02-23T07:32:33;9.90;99.90
66710;DHT22;53624;0.000;0.000;2024-02-23T07:35:01;9.90;99.90
66710;DHT22;53624;0.000;0.000;2024-02-23T07:37:29;9.90;99.90
66710;DHT22;53624;0.000;0.000;2024-02-23T07:39:56;9.90;99.90
66710;DHT22;53624;0.000;0.000;2024-02-23T07:42:25;9.90;99.90
66710;DHT22;53624;0.000;0.000;2024-02-23T07:44:53;9.90;99.90
66710;DHT22;53624;0.000;0.000;2024-02-23T07:47:20;9.90;99.90
66710;DHT22;53624;0.000;0.000;2024-02-23T07:49:47;9.90;99.90
66710;DHT22;53624;0.000;0.000;2024-02-23T07:52:14;10.00;99.90
66710;DHT22;53624;0.000;0.000;2024-02-23T07:54:41;10.00;99.90
66710;DHT22;53624;0.000;0.000;2024-02-23T07:57:08;10.00;99.90
66710;DHT22;53624;0.000;0.000;2024-02-23T07:59:37;10.00;99.90
66710;DHT22;53624;0.000;0.000;2024-02-23T08:02:04;10.00;99.90
66710;DHT22;53624;0.000;0.000;2024-02-23T08:04:32;10.10;99.90
66710;DHT22;53624;0.000;0.000;2024-02-23T08:06:59;10.10;99.90
66710;DHT22;53624;0.000;0.000;2024-02-23T08:09:26;10.10;99.90
66710;DHT22;53624;0.000;0.000;2024-02-23T08:11:54;10.20;99.90
66710;DHT22;53624;0.000;0.000;2024-02-23T08:14:21;10.20;99.90
66710;DHT22;53624;0.000;0.000;2024-02-23T08:16:50;10.30;99.90
66710;DHT22;53624;0.000;0.000;2024-02-23T08:19:17;10.30;99.90
66710;DHT22;53624;0.000;0.000;2024-02-23T08:21:44;10.40;99.90
66710;DHT22;53624;0.000;0.000;2024-02-23T08:24:12;10.40;99.90
66710;DHT22;53624;0.000;0.000;2024-02-23T08:26:39;10.40;99.90
66710;DHT22;53624;0.000;0.000;2024-02-23T08:29:07;10.50;99.90
66710;DHT22;53624;0.000;0.000;2024-02-23T08:31:35;10.50;99.90
66710;DHT22;53624;0.000;0.000;2024-02-23T08:34:04;10.60;99.90
66710;DHT22;53624;0.000;0.000;2024-02-23T08:36:31;10.70;99.90
66710;DHT22;53624;0.000;0.000;2024-02-23T08:38:58;10.80;99.90
66710;DHT22;53624;0.000;0.000;2024-02-23T08:41:25;10.90;99.90
66710;DHT22;53624;0.000;0.000;2024-02-23T08:43:53;11.00;99.90
66710;DHT22;53624;0.000;0.000;2024-02-23T08:46:21;11.10;99.90
66710;DHT22;53624;0.000;0.000;2024-02-23T08:48:48;11.40;99.90
66710;DHT22;53624;0.000;0.000;2024-02-23T08:51:17;11.90;99.90
66710;DHT22;53624;0.000;0.000;2024-02-23T08:53:44;12.20;99.90
66710;DHT22;53624;0.000;0.000;2024-02-23T08:56:12;12.60;99.90
66710;DHT22;53624;0.000;0.000;2024-02-23T08:58:39;12.90;99.90
66710;DHT22;53624;0.000;0.000;2024-02-23T09:01:06;13.20;99.90
66710;DHT22;53624;0.000;0.000;2024-02-23T09:03:35;13.30;99.90
66710;DHT22;53624;0.000;0.000;2024-02-23T09:06:02;13.30;99.90
66710;DHT22;53624;0.000;0.000;2024-02-23T09:08:31;13.30;99.90
66710;DHT22;53624;0.000;0.000;2024-02-23T09:10:58;13.40;99.90
66710;DHT22;53624;0.000;0.000;2024-02-23T09:13:25;13.60;99.90
66710;DHT22;53624;0.000;0.000;2024-02-23T09:15:53;13.80;99.90
66710;DHT22;53624;0.000;0.000;2024-02-23T09:18:20;13.90;99.90
66710;DHT22;53624;0.000;0.000;2024-02-23T09:20:48;14.00;99.90
66710;DHT22;53624;0.000;0.000;2024-02-23T09:23:15;14.20;99.90
66710;DHT22;53624;0.000;0.000;2024-02-23T09:25:44;14.30;99.90
66710;DHT22;53624;0.000;0.000;2024-02-23T09:28:11;14.40;99.90
66710;DHT22;53624;0.000;0.000;2024-02-23T09:30:38;14.50;99.90
66710;DHT22;53624;0.000;0.000;2024-02-23T09:33:05;14.80;99.90
66710;DHT22;53624;0.000;0.000;2024-02-23T09:35:34;15.00;99.90
66710;DHT22;53624;0.000;0.000;2024-02-23T09:38:01;15.20;99.90
66710;DHT22;53624;0.000;0.000;2024-02-23T09:40:28;15.50;99.90
66710;DHT22;53624;0.000;0.000;2024-02-23T09:42:57;15.70;99.90
66710;DHT22;53624;0.000;0.000;2024-02-23T09:45:25;16.00;99.90
66710;DHT22;53624;0.000;0.000;2024-02-23T09:47:53;16.30;99.90
66710;DHT22;53624;0.000;0.000;2024-02-23T09:50:20;16.50;99.90
66710;DHT22;53624;0.000;0.000;2024-02-23T09:52:49;16.80;99.90
66710;DHT22;53624;0.000;0.000;2024-02-23T09:55:17;17.10;99.90
66710;DHT22;53624;0.000;0.000;2024-02-23T09:57:44;17.30;99.90
66710;DHT22;53624;0.000;0.000;2024-02-23T10:00:14;17.50;99.60
66710;DHT22;53624;0.000;0.000;2024-02-23T10:02:43;17.80;99.50
66710;DHT22;53624;0.000;0.000;2024-02-23T10:05:10;18.00;99.30
66710;DHT22;53624;0.000;0.000;2024-02-23T10:07:38;18.20;99.00
66710;DHT22;53624;0.000;0.000;2024-02-23T10:10:06;18.40;98.80
66710;DHT22;53624;0.000;0.000;2024-02-23T10:12:33;18.60;98.50
66710;DHT22;53624;0.000;0.000;2024-02-23T10:15:01;18.80;98.40
66710;DHT22;53624;0.000;0.000;2024-02-23T10:17:31;18.90;98.20
66710;DHT22;53624;0.000;0.000;2024-02-23T10:19:58;19.10;98.00
66710;DHT22;53624;0.000;0.000;2024-02-23T10:22:30;19.30;97.90
66710;DHT22;53624;0.000;0.000;2024-02-23T10:24:57;19.50;97.70
66710;DHT22;53624;0.000;0.000;2024-02-23T10:27:24;19.60;97.40
66710;DHT22;53624;0.000;0.000;2024-02-23T10:29:52;19.80;97.30
66710;DHT22;53624;0.000;0.000;2024-02-23T10:32:19;20.00;97.20
66710;DHT22;53624;0.000;0.000;2024-02-23T10:34:48;20.20;97.00
66710;DHT22;53624;0.000;0.000;2024-02-23T10:37:16;20.30;96.90
66710;DHT22;53624;0.000;0.000;2024-02-23T10:39:44;20.40;96.70
66710;DHT22;53624;0.000;0.000;2024-02-23T10:42:12;20.60;96.50
66710;DHT22;53624;0.000;0.000;2024-02-23T10:44:42;20.70;96.30
66710;DHT22;53624;0.000;0.000;2024-02-23T10:47:09;20.90;96.20
66710;DHT22;53624;0.000;0.000;2024-02-23T10:49:36;21.00;96.10
66710;DHT22;53624;0.000;0.000;2024-02-23T10:52:05;21.20;96.00
66710;DHT22;53624;0.000;0.000;2024-02-23T10:54:33;21.40;95.90
66710;DHT22;53624;0.000;0.000;2024-02-23T10:57:00;21.60;95.70
66710;DHT22;53624;0.000;0.000;2024-02-23T10:59:28;21.90;95.50
66710;DHT22;53624;0.000;0.000;2024-02-23T11:01:56;22.70;94.70
66710;DHT22;53624;0.000;0.000;2024-02-23T11:04:25;23.50;93.40
66710;DHT22;53624;0.000;0.000;2024-02-23T11:06:53;24.20;92.30
66710;DHT22;53624;0.000;0.000;2024-02-23T11:09:23;24.70;91.50
66710;DHT22;53624;0.000;0.000;2024-02-23T11:11:53;25.00;91.00
66710;DHT22;53624;0.000;0.000;2024-02-23T11:14:29;25.10;90.60
66710;DHT22;53624;0.000;0.000;2024-02-23T11:16:56;24.90;90.80
66710;DHT22;53624;0.000;0.000;2024-02-23T11:19:31;24.50;91.20
66710;DHT22;53624;0.000;0.000;2024-02-23T11:21:59;24.20;90.10
66710;DHT22;53624;0.000;0.000;2024-02-23T11:24:29;23.80;88.60
66710;DHT22;53624;0.000;0.000;2024-02-23T11:26:56;23.80;88.70
66710;DHT22;53624;0.000;0.000;2024-02-23T11:29:25;23.70;88.60
66710;DHT22;53624;0.000;0.000;2024-02-23T11:31:53;23.70;88.30
66710;DHT22;53624;0.000;0.000;2024-02-23T11:34:22;23.80;87.50
66710;DHT22;53624;0.000;0.000;2024-02-23T11:36:50;24.50;85.50
66710;DHT22;53624;0.000;0.000;2024-02-23T11:39:18;25.50;83.00
66710;DHT22;53624;0.000;0.000;2024-02-23T11:41:48;26.30;80.60
66710;DHT22;53624;0.000;0.000;2024-02-23T11:44:16;27.00;77.80
66710;DHT22;53624;0.000;0.000;2024-02-23T11:46:44;27.60;75.90
66710;DHT22;53624;0.000;0.000;2024-02-23T11:49:14;28.00;74.60
66710;DHT22;53624;0.000;0.000;2024-02-23T11:51:41;28.10;74.50
66710;DHT22;53624;0.000;0.000;2024-02-23T11:54:08;27.10;75.00
66710;DHT22;53624;0.000;0.000;2024-02-23T11:56:36;26.40;76.10
66710;DHT22;53624;0.000;0.000;2024-02-23T11:59:04;26.00;76.80
66710;DHT22;53624;0.000;0.000;2024-02-23T12:01:31;26.50;76.40
66710;DHT22;53624;0.000;0.000;2024-02-23T12:03:58;27.10;74.70
66710;DHT22;53624;0.000;0.000;2024-02-23T12:06:26;27.60;73.60
66710;DHT22;53624;0.000;0.000;2024-02-23T12:08:56;27.70;72.90
66710;DHT22;53624;0.000;0.000;2024-02-23T12:11:23;27.80;72.00
66710;DHT22;53624;0.000;0.000;2024-02-23T12:13:51;28.00;71.60
66710;DHT22;53624;0.000;0.000;2024-02-23T12:16:19;28.20;70.70
66710;DHT22;53624;0.000;0.000;2024-02-23T12:18:52;27.50;71.30
66710;DHT22;53624;0.000;0.000;2024-02-23T12:21:19;26.30;73.30
66710;DHT22;53624;0.000;0.000;2024-02-23T12:23:48;25.40;75.10
66710;DHT22;53624;0.000;0.000;2024-02-23T12:26:16;25.20;74.60
66710;DHT22;53624;0.000;0.000;2024-02-23T12:28:43;24.60;76.20
66710;DHT22;53624;0.000;0.000;2024-02-23T12:31:11;24.90;75.80
66710;DHT22;53624;0.000;0.000;2024-02-23T12:33:40;24.80;75.70
66710;DHT22;53624;0.000;0.000;2024-02-23T12:36:08;24.60;75.00
66710;DHT22;53624;0.000;0.000;2024-02-23T12:38:35;24.00;76.60
66710;DHT22;53624;0.000;0.000;2024-02-23T12:41:02;23.50;77.80
66710;DHT22;53624;0.000;0.000;2024-02-23T12:43:30;23.20;78.40
66710;DHT22;53624;0.000;0.000;2024-02-23T12:45:57;23.10;77.90
66710;DHT22;53624;0.000;0.000;2024-02-23T12:48:25;22.80;78.50
66710;DHT22;53624;0.000;0.000;2024-02-23T12:50:53;22.50;79.10
66710;DHT22;53624;0.000;0.000;2024-02-23T12:53:31;22.40;79.40
66710;DHT22;53624;0.000;0.000;2024-02-23T12:55:59;23.00;78.60
66710;DHT22;53624;0.000;0.000;2024-02-23T12:58:26;23.10;78.40
66710;DHT22;53624;0.000;0.000;2024-02-23T13:00:53;22.80;78.90
66710;DHT22;53624;0.000;0.000;2024-02-23T13:03:21;22.50;78.60
66710;DHT22;53624;0.000;0.000;2024-02-23T13:05:48;22.20;79.10
66710;DHT22;53624;0.000;0.000;2024-02-23T13:08:17;22.00;80.40
66710;DHT22;53624;0.000;0.000;2024-02-23T13:10:44;21.80;80.90
66710;DHT22;53624;0.000;0.000;2024-02-23T13:13:12;21.90;80.70
66710;DHT22;53624;0.000;0.000;2024-02-23T13:15:41;21.90;81.20
66710;DHT22;53624;0.000;0.000;2024-02-23T13:18:08;22.00;81.10
66710;DHT22;53624;0.000;0.000;2024-02-23T13:20:36;22.40;80.50
66710;DHT22;53624;0.000;0.000;2024-02-23T13:23:04;22.70;80.60
66710;DHT22;53624;0.000;0.000;2024-02-23T13:25:34;22.90;80.10
66710;DHT22;53624;0.000;0.000;2024-02-23T13:28:02;23.00;79.80
66710;DHT22;53624;0.000;0.000;2024-02-23T13:30:30;23.00;80.00
66710;DHT22;53624;0.000;0.000;2024-02-23T13:32:57;23.10;80.10
66710;DHT22;53624;0.000;0.000;2024-02-23T13:35:24;23.20;79.90
66710;DHT22;53624;0.000;0.000;2024-02-23T13:37:52;23.30;79.80
66710;DHT22;53624;0.000;0.000;2024-02-23T13:40:19;23.10;80.40
66710;DHT22;53624;0.000;0.000;2024-02-23T13:42:47;22.70;81.10
66710;DHT22;53624;0.000;0.000;2024-02-23T13:45:16;22.50;81.80
66710;DHT22;53624;0.000;0.000;2024-02-23T13:47:43;22.30;82.50
66710;DHT22;53624;0.000;0.000;2024-02-23T13:50:11;22.10;83.00
66710;DHT22;53624;0.000;0.000;2024-02-23T13:52:39;22.00;83.40
66710;DHT22;53624;0.000;0.000;2024-02-23T13:55:07;21.90;83.60
66710;DHT22;53624;0.000;0.000;2024-02-23T13:57:35;21.90;83.70
66710;DHT22;53624;0.000;0.000;2024-02-23T14:00:04;21.70;83.90
66710;DHT22;53624;0.000;0.000;2024-02-23T14:02:37;21.50;84.60
66710;DHT22;53624;0.000;0.000;2024-02-23T14:05:06;21.30;85.00
66710;DHT22;53624;0.000;0.000;2024-02-23T14:07:33;21.20;85.10
66710;DHT22;53624;0.000;0.000;2024-02-23T14:10:01;21.20;85.20
66710;DHT22;53624;0.000;0.000;2024-02-23T14:12:28;21.10;85.30
66710;DHT22;53624;0.000;0.000;2024-02-23T14:14:55;20.90;85.60
66710;DHT22;53624;0.000;0.000;2024-02-23T14:17:24;20.80;86.00
66710;DHT22;53624;0.000;0.000;2024-02-23T14:19:51;20.70;86.20
66710;DHT22;53624;0.000;0.000;2024-02-23T14:22:18;20.60;86.60
66710;DHT22;53624;0.000;0.000;2024-02-23T14:24:45;20.50;86.70
66710;DHT22;53624;0.000;0.000;2024-02-23T14:27:13;20.40;86.90
66710;DHT22;53624;0.000;0.000;2024-02-23T14:29:40;20.40;87.10
66710;DHT22;53624;0.000;0.000;2024-02-23T14:32:07;20.30;87.30
66710;DHT22;53624;0.000;0.000;2024-02-23T14:34:36;20.20;87.50
66710;DHT22;53624;0.000;0.000;2024-02-23T14:37:03;20.10;87.80
66710;DHT22;53624;0.000;0.000;2024-02-23T14:39:30;19.90;88.10
66710;DHT22;53624;0.000;0.000;2024-02-23T14:41:58;19.90;88.20
66710;DHT22;53624;0.000;0.000;2024-02-23T14:44:25;19.80;88.50
66710;DHT22;53624;0.000;0.000;2024-02-23T14:46:52;19.60;88.70
66710;DHT22;53624;0.000;0.000;2024-02-23T14:49:19;19.60;88.90
66710;DHT22;53624;0.000;0.000;2024-02-23T14:51:48;19.50;89.10
66710;DHT22;53624;0.000;0.000;2024-02-23T14:54:15;19.50;89.10
66710;DHT22;53624;0.000;0.000;2024-02-23T14:56:42;19.40;89.10
66710;DHT22;53624;0.000;0.000;2024-02-23T14:59:09;19.40;89.20
66710;DHT22;53624;0.000;0.000;2024-02-23T15:01:37;19.30;89.40
66710;DHT22;53624;0.000;0.000;2024-02-23T15:04:06;19.30;89.50
66710;DHT22;53624;0.000;0.000;2024-02-23T15:06:34;19.20;89.50
66710;DHT22;53624;0.000;0.000;2024-02-23T15:09:03;19.20;89.60
66710;DHT22;53624;0.000;0.000;2024-02-23T15:11:31;19.20;89.60
66710;DHT22;53624;0.000;0.000;2024-02-23T15:13:58;19.10;89.80
66710;DHT22;53624;0.000;0.000;2024-02-23T15:16:26;19.00;90.00
66710;DHT22;53624;0.000;0.000;2024-02-23T15:18:54;19.00;90.00
66710;DHT22;53624;0.000;0.000;2024-02-23T15:21:21;18.90;90.10
66710;DHT22;53624;0.000;0.000;2024-02-23T15:23:48;18.80;90.20
66710;DHT22;53624;0.000;0.000;2024-02-23T15:26:17;18.70;90.20
66710;DHT22;53624;0.000;0.000;2024-02-23T15:28:44;18.60;90.30
66710;DHT22;53624;0.000;0.000;2024-02-23T15:31:11;18.50;90.50
66710;DHT22;53624;0.000;0.000;2024-02-23T15:33:39;18.40;90.50
66710;DHT22;53624;0.000;0.000;2024-02-23T15:36:06;18.30;90.60
66710;DHT22;53624;0.000;0.000;2024-02-23T15:38:34;18.20;90.70
66710;DHT22;53624;0.000;0.000;2024-02-23T15:41:01;18.20;90.80
66710;DHT22;53624;0.000;0.000;2024-02-23T15:43:30;18.10;90.90
66710;DHT22;53624;0.000;0.000;2024-02-23T15:45:58;18.00;90.90
66710;DHT22;53624;0.000;0.000;2024-02-23T15:48:25;17.90;91.00
66710;DHT22;53624;0.000;0.000;2024-02-23T15:50:52;17.90;91.10